createdAt,value
2022-12-14T00:01:35.297Z,-1.60
2022-12-14T00:04:04.957Z,-1.60
2022-12-14T00:06:35.615Z,-1.60
2022-12-14T00:09:06.091Z,-1.50
2022-12-14T00:11:37.201Z,-1.50
2022-12-14T00:14:04.868Z,-1.50
2022-12-14T00:16:34.528Z,-1.60
2022-12-14T00:19:08.863Z,-1.60
2022-12-14T00:21:40.734Z,-1.60
2022-12-14T00:24:10.610Z,-1.60
2022-12-14T00:26:38.739Z,-1.60
2022-12-14T00:29:08.430Z,-1.60
2022-12-14T00:31:39.077Z,-1.50
2022-12-14T00:34:08.126Z,-1.60
2022-12-14T00:36:41.422Z,-1.60
2022-12-14T00:39:10.785Z,-1.60
2022-12-14T00:41:39.906Z,-1.70
2022-12-14T00:44:08.569Z,-1.70
2022-12-14T00:46:36.045Z,-1.70
2022-12-14T00:49:08.309Z,-1.70
2022-12-14T00:51:38.780Z,-1.70
2022-12-14T00:54:07.268Z,-1.70
2022-12-14T00:56:36.747Z,-1.70
2022-12-14T00:59:08.324Z,-1.70
2022-12-14T01:01:42.548Z,-1.70
2022-12-14T01:04:22.102Z,-1.70
2022-12-14T01:06:53.908Z,-1.70
2022-12-14T01:09:23.643Z,-1.70
2022-12-14T01:11:54.728Z,-1.70
2022-12-14T01:14:32.808Z,-1.70
2022-12-14T01:17:02.841Z,-1.80
2022-12-14T01:19:34.412Z,-1.80
2022-12-14T01:22:06.517Z,-1.80
2022-12-14T01:24:55.628Z,-1.80
2022-12-14T01:27:24.450Z,-1.80
2022-12-14T01:29:51.753Z,-1.80
2022-12-14T01:32:25.299Z,-1.80
2022-12-14T01:34:55.810Z,-1.80
2022-12-14T01:37:26.836Z,-1.80
2022-12-14T01:39:55.647Z,-1.80
2022-12-14T01:42:25.136Z,-1.80
2022-12-14T01:44:58.216Z,-1.80
2022-12-14T01:47:37.580Z,-1.90
2022-12-14T01:50:41.033Z,-1.90
2022-12-14T01:53:20.665Z,-1.90
2022-12-14T01:55:52.778Z,-1.90
2022-12-14T01:58:30.577Z,-1.90
2022-12-14T02:01:02.215Z,-1.90
2022-12-14T02:03:46.921Z,-1.90
2022-12-14T02:06:24.310Z,-1.90
2022-12-14T02:08:55.196Z,-2.00
2022-12-14T02:11:43.888Z,-2.00
2022-12-14T02:14:12.147Z,-2.00
2022-12-14T02:16:41.559Z,-2.00
2022-12-14T02:19:18.116Z,-2.00
2022-12-14T02:22:23.910Z,-2.00
2022-12-14T02:25:18.583Z,-2.10
2022-12-14T02:28:07.414Z,-2.10
2022-12-14T02:30:51.688Z,-2.00
2022-12-14T02:33:40.644Z,-2.10
2022-12-14T02:36:38.046Z,-2.10
2022-12-14T02:39:37.886Z,-2.10
2022-12-14T02:42:18.808Z,-2.00
2022-12-14T02:45:27.871Z,-2.10
2022-12-14T02:48:04.514Z,-2.10
2022-12-14T02:50:51.154Z,-2.10
2022-12-14T02:53:36.598Z,-2.20
2022-12-14T02:56:16.164Z,-2.20
2022-12-14T03:01:33.186Z,-2.20
2022-12-14T03:04:04.424Z,-2.20
2022-12-14T03:06:31.469Z,-2.20
2022-12-14T03:09:06.404Z,-2.20
2022-12-14T03:12:06.094Z,-2.20
2022-12-14T03:17:28.163Z,-2.20
2022-12-14T03:20:17.106Z,-2.20
2022-12-14T03:23:19.069Z,-2.20
2022-12-14T03:26:06.016Z,-2.20
2022-12-14T03:28:58.242Z,-2.20
2022-12-14T03:31:56.305Z,-2.20
2022-12-14T03:34:33.444Z,-2.30
2022-12-14T03:37:41.461Z,-2.30
2022-12-14T03:40:16.099Z,-2.30
2022-12-14T03:43:09.528Z,-2.30
2022-12-14T03:46:20.390Z,-2.30
2022-12-14T03:48:53.752Z,-2.30
2022-12-14T03:51:52.227Z,-2.40
2022-12-14T03:54:45.899Z,-2.40
2022-12-14T03:57:45.945Z,-2.40
2022-12-14T04:00:18.405Z,-2.40
2022-12-14T04:02:54.606Z,-2.40
2022-12-14T04:05:33.654Z,-2.40
2022-12-14T04:08:24.229Z,-2.50
2022-12-14T04:11:14.814Z,-2.40
2022-12-14T04:14:15.839Z,-2.40
2022-12-14T04:17:06.404Z,-2.50
2022-12-14T04:19:58.755Z,-2.50
2022-12-14T04:22:31.558Z,-2.40
2022-12-14T04:25:30.467Z,-2.40
2022-12-14T04:28:46.142Z,-2.40
2022-12-14T04:31:23.695Z,-2.40
2022-12-14T04:33:55.938Z,-2.40
2022-12-14T04:36:32.799Z,-2.40
2022-12-14T04:39:13.657Z,-2.40
2022-12-14T04:41:45.501Z,-2.30
2022-12-14T04:44:28.795Z,-2.30
2022-12-14T04:47:01.172Z,-2.30
2022-12-14T04:49:55.764Z,-2.30
2022-12-14T04:52:42.615Z,-2.30
2022-12-14T04:55:26.251Z,-2.30
2022-12-14T04:58:17.011Z,-2.30
2022-12-14T05:01:14.059Z,-2.30
2022-12-14T05:07:06.397Z,-2.30
2022-12-14T05:10:04.644Z,-2.30
2022-12-14T05:12:34.098Z,-2.30
2022-12-14T05:15:10.434Z,-2.30
2022-12-14T05:17:39.221Z,-2.30
2022-12-14T05:20:12.658Z,-2.30
2022-12-14T05:22:40.219Z,-2.30
2022-12-14T05:25:07.265Z,-2.30
2022-12-14T05:27:33.961Z,-2.30
2022-12-14T05:30:00.665Z,-2.30
2022-12-14T05:32:29.121Z,-2.30
2022-12-14T05:34:55.996Z,-2.20
2022-12-14T05:37:22.677Z,-2.30
2022-12-14T05:39:49.472Z,-2.30
2022-12-14T05:42:16.635Z,-2.30
2022-12-14T05:44:43.325Z,-2.30
2022-12-14T05:47:10.661Z,-2.30
2022-12-14T05:49:37.374Z,-2.40
2022-12-14T05:52:04.275Z,-2.40
2022-12-14T05:54:31.014Z,-2.40
2022-12-14T05:56:57.835Z,-2.40
2022-12-14T05:59:25.579Z,-2.40
2022-12-14T06:01:52.324Z,-2.40
2022-12-14T06:04:19.241Z,-2.40
2022-12-14T06:06:46.079Z,-2.30
2022-12-14T06:09:15.933Z,-2.30
2022-12-14T06:11:43.947Z,-2.30
2022-12-14T06:14:11.873Z,-2.30
2022-12-14T06:16:43.348Z,-2.30
2022-12-14T06:19:11.083Z,-2.30
2022-12-14T06:21:39.905Z,-2.30
2022-12-14T06:24:07.607Z,-2.30
2022-12-14T06:26:41.223Z,-2.30
2022-12-14T06:29:13.254Z,-2.30
2022-12-14T06:31:39.956Z,-2.30
2022-12-14T06:34:06.907Z,-2.20
2022-12-14T06:36:36.267Z,-2.20
2022-12-14T06:39:07.191Z,-2.20
2022-12-14T06:41:33.851Z,-2.10
2022-12-14T06:44:10.013Z,-2.10
2022-12-14T06:46:37.496Z,-2.10
2022-12-14T06:49:05.931Z,-2.10
2022-12-14T06:51:33.658Z,-2.10
2022-12-14T06:54:00.400Z,-2.10
2022-12-14T06:56:27.880Z,-2.10
2022-12-14T06:58:55.411Z,-2.00
2022-12-14T07:01:24.654Z,-2.10
2022-12-14T07:03:54.664Z,-2.10
2022-12-14T07:06:22.974Z,-2.10
2022-12-14T07:08:52.920Z,-2.10
2022-12-14T07:11:19.660Z,-2.10
2022-12-14T07:13:48.892Z,-2.10
2022-12-14T07:16:19.081Z,-2.10
2022-12-14T07:18:46.261Z,-2.10
2022-12-14T07:21:14.879Z,-2.10
2022-12-14T07:23:44.122Z,-2.10
2022-12-14T07:26:27.614Z,-2.10
2022-12-14T07:28:55.047Z,-2.20
2022-12-14T07:31:27.149Z,-2.20
2022-12-14T07:33:59.099Z,-2.10
2022-12-14T07:36:27.726Z,-2.20
2022-12-14T07:38:55.818Z,-2.20
2022-12-14T07:41:27.942Z,-2.20
2022-12-14T07:43:56.589Z,-2.20
2022-12-14T07:46:27.698Z,-2.20
2022-12-14T07:48:56.797Z,-2.10
2022-12-14T07:51:26.545Z,-2.10
2022-12-14T07:53:53.399Z,-2.10
2022-12-14T07:56:26.463Z,-2.10
2022-12-14T07:58:56.115Z,-2.10
2022-12-14T08:01:28.962Z,-2.00
2022-12-14T08:04:10.797Z,-2.00
2022-12-14T08:06:38.698Z,-2.00
2022-12-14T08:09:06.973Z,-2.00
2022-12-14T08:11:33.981Z,-2.00
2022-12-14T08:14:03.293Z,-2.00
2022-12-14T08:16:32.120Z,-2.00
2022-12-14T08:19:00.109Z,-2.00
2022-12-14T08:21:27.725Z,-2.00
2022-12-14T08:23:55.757Z,-2.00
2022-12-14T08:26:24.051Z,-2.00
2022-12-14T08:28:51.919Z,-2.00
2022-12-14T08:31:21.402Z,-2.00
2022-12-14T08:33:49.141Z,-2.00
2022-12-14T08:36:20.375Z,-2.00
2022-12-14T08:38:52.828Z,-2.00
2022-12-14T08:41:19.586Z,-2.00
2022-12-14T08:43:50.492Z,-2.00
2022-12-14T08:46:17.611Z,-2.00
2022-12-14T08:48:44.432Z,-2.00
2022-12-14T08:51:12.305Z,-1.90
2022-12-14T08:53:39.488Z,-1.90
2022-12-14T08:56:12.356Z,-1.90
2022-12-14T08:58:40.479Z,-2.00
2022-12-14T09:01:15.813Z,-2.00
2022-12-14T09:03:44.750Z,-2.00
2022-12-14T09:06:14.146Z,-1.90
2022-12-14T09:08:41.149Z,-2.00
2022-12-14T09:11:14.602Z,-2.00
2022-12-14T09:13:42.396Z,-1.90
2022-12-14T09:16:13.001Z,-1.90
2022-12-14T09:18:40.567Z,-1.90
2022-12-14T09:21:08.144Z,-1.90
2022-12-14T09:23:35.989Z,-1.80
2022-12-14T09:26:08.362Z,-1.80
2022-12-14T09:28:37.075Z,-1.70
2022-12-14T09:31:10.763Z,-1.70
2022-12-14T09:33:37.617Z,-1.70
2022-12-14T09:36:10.548Z,-1.70
2022-12-14T09:38:39.215Z,-1.60
2022-12-14T09:41:18.544Z,-1.60
2022-12-14T09:43:54.430Z,-1.60
2022-12-14T09:46:31.553Z,-1.60
2022-12-14T09:48:59.187Z,-1.50
2022-12-14T09:51:35.161Z,-1.50
2022-12-14T09:54:07.082Z,-1.50
2022-12-14T09:56:34.665Z,-1.50
2022-12-14T09:59:03.181Z,-1.50
2022-12-14T10:01:38.814Z,-1.50
2022-12-14T10:04:14.886Z,-1.40
2022-12-14T10:06:47.581Z,-1.50
2022-12-14T10:09:29.327Z,-1.40
2022-12-14T10:12:15.529Z,-1.50
2022-12-14T10:15:05.283Z,-1.50
2022-12-14T10:18:03.330Z,-1.60
2022-12-14T10:20:42.243Z,-1.60
2022-12-14T10:23:21.090Z,-1.50
2022-12-14T10:25:52.656Z,-1.50
2022-12-14T10:28:29.211Z,-1.50
2022-12-14T10:30:59.186Z,-1.50
2022-12-14T10:33:29.558Z,-1.50
2022-12-14T10:36:08.039Z,-1.40
2022-12-14T10:38:45.103Z,-1.40
2022-12-14T10:41:30.615Z,-1.30
2022-12-14T10:44:13.623Z,-1.30
2022-12-14T10:46:57.107Z,-1.30
2022-12-14T10:49:30.015Z,-1.20
2022-12-14T10:52:14.757Z,-1.20
2022-12-14T10:54:49.653Z,-1.20
2022-12-14T10:57:24.746Z,-1.20
2022-12-14T11:00:05.717Z,-1.10
2022-12-14T11:02:39.390Z,-1.10
2022-12-14T11:05:38.887Z,-1.00
2022-12-14T11:08:07.294Z,-1.00
2022-12-14T11:10:41.710Z,-1.00
2022-12-14T11:13:16.894Z,-0.90
2022-12-14T11:15:53.182Z,-0.90
2022-12-14T11:18:20.064Z,-0.90
2022-12-14T11:20:52.774Z,-0.80
2022-12-14T11:23:24.722Z,-0.70
2022-12-14T11:25:55.518Z,-0.70
2022-12-14T11:28:36.979Z,-0.70
2022-12-14T11:31:07.748Z,-0.60
2022-12-14T11:33:55.804Z,-0.50
2022-12-14T11:36:34.374Z,-0.50
2022-12-14T11:39:12.835Z,-0.40
2022-12-14T11:42:01.454Z,-0.40
2022-12-14T11:44:34.574Z,-0.30
2022-12-14T11:47:05.171Z,-0.30
2022-12-14T11:49:41.904Z,-0.20
2022-12-14T11:52:13.721Z,-0.20
2022-12-14T11:54:49.481Z,-0.20
2022-12-14T11:57:30.930Z,-0.10
2022-12-14T12:00:04.679Z,-0.10
2022-12-14T12:02:38.555Z,0.00
2022-12-14T12:05:11.272Z,-0.10
2022-12-14T12:07:59.439Z,0.00
2022-12-14T12:10:50.084Z,0.00
2022-12-14T12:13:32.464Z,0.10
2022-12-14T12:16:13.540Z,0.10
2022-12-14T12:19:14.275Z,0.20
2022-12-14T12:21:44.739Z,0.30
2022-12-14T12:24:11.565Z,0.40
2022-12-14T12:26:52.348Z,0.40
2022-12-14T12:29:25.286Z,0.50
2022-12-14T12:32:06.163Z,0.50
2022-12-14T12:34:34.869Z,0.70
2022-12-14T12:40:02.273Z,1.20
2022-12-14T12:42:30.485Z,1.60
2022-12-14T12:45:13.964Z,1.80
2022-12-14T12:47:48.253Z,2.00
2022-12-14T12:50:24.419Z,2.10
2022-12-14T12:53:03.661Z,2.40
2022-12-14T12:55:36.770Z,2.60
2022-12-14T12:58:09.420Z,2.90
2022-12-14T13:00:38.358Z,2.90
2022-12-14T13:03:24.690Z,3.10
2022-12-14T13:05:55.120Z,3.20
2022-12-14T13:08:35.772Z,3.20
2022-12-14T13:11:26.006Z,3.00
2022-12-14T13:13:58.523Z,3.10
2022-12-14T13:16:29.425Z,3.30
2022-12-14T13:19:13.323Z,3.40
2022-12-14T13:21:52.515Z,3.40
2022-12-14T13:24:21.872Z,3.30
2022-12-14T13:27:26.528Z,3.10
2022-12-14T13:30:17.523Z,3.10
2022-12-14T13:32:47.327Z,3.20
2022-12-14T13:35:16.776Z,3.10
2022-12-14T13:38:06.492Z,3.10
2022-12-14T13:40:41.660Z,3.20
2022-12-14T13:43:30.034Z,3.30
2022-12-14T13:46:04.091Z,3.30
2022-12-14T13:48:39.397Z,3.30
2022-12-14T13:51:09.126Z,3.30
2022-12-14T13:53:50.257Z,3.30
2022-12-14T13:56:44.619Z,3.30
2022-12-14T13:59:33.079Z,3.30
2022-12-14T14:02:01.837Z,3.20
2022-12-14T14:04:33.514Z,3.20
2022-12-14T14:07:23.531Z,3.20
2022-12-14T14:09:56.297Z,3.20
2022-12-14T14:12:30.670Z,3.00
2022-12-14T14:14:57.316Z,2.80
2022-12-14T14:17:35.177Z,2.80
2022-12-14T14:20:24.506Z,2.90
2022-12-14T14:23:16.240Z,2.80
2022-12-14T14:25:52.961Z,2.80
2022-12-14T14:28:23.162Z,2.70
2022-12-14T14:30:56.990Z,2.60
2022-12-14T14:33:46.010Z,2.60
2022-12-14T14:36:33.426Z,2.50
2022-12-14T14:39:24.517Z,2.30
2022-12-14T14:41:54.798Z,2.30
2022-12-14T14:44:40.582Z,2.10
2022-12-14T14:47:22.346Z,2.00
2022-12-14T14:49:55.975Z,1.80
2022-12-14T14:52:38.855Z,1.70
2022-12-14T14:58:24.284Z,1.20
2022-12-14T15:01:16.361Z,1.10
2022-12-14T15:04:04.308Z,1.00
2022-12-14T15:06:41.810Z,0.90
2022-12-14T15:09:31.963Z,0.90
2022-12-14T15:12:04.578Z,0.70
2022-12-14T15:14:43.228Z,0.60
2022-12-14T15:17:19.462Z,0.50
2022-12-14T15:19:53.079Z,0.40
2022-12-14T15:22:22.655Z,0.30
2022-12-14T15:24:53.231Z,0.30
2022-12-14T15:27:26.309Z,0.20
2022-12-14T15:29:56.680Z,0.10
2022-12-14T15:32:25.250Z,0.10
2022-12-14T15:34:59.649Z,0.00
2022-12-14T15:37:28.559Z,0.00
2022-12-14T15:40:12.957Z,-0.10
2022-12-14T15:43:18.890Z,-0.20
2022-12-14T15:45:48.568Z,-0.30
2022-12-14T15:48:30.061Z,-0.40
2022-12-14T15:51:16.818Z,-0.40
2022-12-14T15:53:50.187Z,-0.50
2022-12-14T15:56:34.607Z,-0.50
2022-12-14T15:59:13.385Z,-0.60
2022-12-14T16:01:53.724Z,-0.60
2022-12-14T16:04:25.706Z,-0.50
2022-12-14T16:07:08.103Z,-0.60
2022-12-14T16:09:40.486Z,-0.70
2022-12-14T16:12:09.005Z,-0.70
2022-12-14T16:15:00.382Z,-0.70
2022-12-14T16:17:32.287Z,-0.80
2022-12-14T16:20:02.337Z,-0.80
2022-12-14T16:22:31.868Z,-0.80
2022-12-14T16:25:18.130Z,-0.90
2022-12-14T16:27:50.296Z,-0.90
2022-12-14T16:30:17.606Z,-0.90
2022-12-14T16:32:50.161Z,-1.00
2022-12-14T16:35:24.721Z,-1.00
2022-12-14T16:37:54.060Z,-1.00
2022-12-14T16:40:53.641Z,-1.00
2022-12-14T16:43:35.522Z,-1.00
2022-12-14T16:46:08.062Z,-1.00
2022-12-14T16:48:44.048Z,-1.10
2022-12-14T16:51:32.961Z,-1.00
2022-12-14T16:54:25.778Z,-1.10
2022-12-14T16:56:57.492Z,-1.10
2022-12-14T16:59:36.272Z,-1.20
2022-12-14T17:02:04.149Z,-1.20
2022-12-14T17:04:39.153Z,-1.30
2022-12-14T17:07:05.919Z,-1.30
2022-12-14T17:09:33.809Z,-1.30
2022-12-14T17:12:02.633Z,-1.40
2022-12-14T17:14:29.523Z,-1.40
2022-12-14T17:17:01.432Z,-1.40
2022-12-14T17:19:39.162Z,-1.40
2022-12-14T17:22:16.627Z,-1.40
2022-12-14T17:24:47.757Z,-1.50
2022-12-14T17:27:19.078Z,-1.50
2022-12-14T17:29:46.117Z,-1.50
2022-12-14T17:32:15.372Z,-1.50
2022-12-14T17:34:45.504Z,-1.50
2022-12-14T17:37:21.805Z,-1.50
2022-12-14T17:39:49.351Z,-1.40
2022-12-14T17:42:20.439Z,-1.50
2022-12-14T17:44:58.376Z,-1.50
2022-12-14T17:47:25.897Z,-1.50
2022-12-14T17:49:52.729Z,-1.50
2022-12-14T17:52:24.475Z,-1.50
2022-12-14T17:54:51.411Z,-1.50
2022-12-14T17:57:20.672Z,-1.50
2022-12-14T17:59:48.047Z,-1.60
2022-12-14T18:02:31.090Z,-1.50
2022-12-14T18:04:58.063Z,-1.50
2022-12-14T18:07:24.847Z,-1.60
2022-12-14T18:09:53.575Z,-1.60
2022-12-14T18:12:23.603Z,-1.60
2022-12-14T18:14:51.103Z,-1.60
2022-12-14T18:17:19.276Z,-1.70
2022-12-14T18:19:47.874Z,-1.70
2022-12-14T18:22:16.780Z,-1.70
2022-12-14T18:24:43.706Z,-1.70
2022-12-14T18:27:14.244Z,-1.80
2022-12-14T18:29:41.158Z,-1.80
2022-12-14T18:32:13.166Z,-1.80
2022-12-14T18:34:40.202Z,-1.80
2022-12-14T18:37:07.121Z,-1.80
2022-12-14T18:39:33.791Z,-1.90
2022-12-14T18:42:02.880Z,-1.90
2022-12-14T18:44:29.898Z,-2.00
2022-12-14T18:47:05.518Z,-2.10
2022-12-14T18:49:43.305Z,-2.10
2022-12-14T18:52:14.440Z,-2.10
2022-12-14T18:54:42.557Z,-2.10
2022-12-14T18:57:11.709Z,-2.10
2022-12-14T18:59:42.717Z,-2.20
2022-12-14T19:02:20.902Z,-2.20
2022-12-14T19:04:52.478Z,-2.20
2022-12-14T19:07:20.530Z,-2.20
2022-12-14T19:09:52.448Z,-2.30
2022-12-14T19:12:22.488Z,-2.30
2022-12-14T19:15:11.655Z,-2.40
2022-12-14T19:17:42.240Z,-2.40
2022-12-14T19:20:14.308Z,-2.40
2022-12-14T19:28:32.117Z,-2.40
2022-12-14T19:33:46.953Z,-2.40
2022-12-14T19:36:41.807Z,-2.50
2022-12-14T19:39:25.444Z,-2.50
2022-12-14T19:41:54.380Z,-2.50
2022-12-14T19:44:45.244Z,-2.60
2022-12-14T19:47:28.220Z,-2.60
2022-12-14T19:52:41.687Z,-2.60
2022-12-14T19:55:09.436Z,-2.60
2022-12-14T20:00:34.736Z,-2.60
2022-12-14T20:03:22.231Z,-2.70
2022-12-14T20:06:19.376Z,-2.70
2022-12-14T20:08:49.535Z,-2.70
2022-12-14T20:11:17.433Z,-2.70
2022-12-14T20:13:55.014Z,-2.70
2022-12-14T20:16:34.463Z,-2.70
2022-12-14T20:19:06.347Z,-2.80
2022-12-14T20:21:36.925Z,-2.80
2022-12-14T20:24:04.456Z,-2.80
2022-12-14T20:26:31.970Z,-2.80
2022-12-14T20:29:06.842Z,-2.80
2022-12-14T20:31:35.546Z,-2.90
2022-12-14T20:34:09.801Z,-2.90
2022-12-14T20:36:39.031Z,-2.90
2022-12-14T20:39:09.864Z,-2.90
2022-12-14T20:41:38.435Z,-2.90
2022-12-14T20:44:14.724Z,-2.90
2022-12-14T20:46:47.388Z,-2.90
2022-12-14T20:52:10.407Z,-3.00
2022-12-14T20:54:55.621Z,-2.90
2022-12-14T20:57:28.673Z,-3.00
2022-12-14T21:00:20.288Z,-3.00
2022-12-14T21:09:03.516Z,-2.80
2022-12-14T21:11:52.025Z,-2.80
2022-12-14T21:14:24.558Z,-2.80
2022-12-14T21:16:54.921Z,-2.80
2022-12-14T21:19:25.912Z,-2.80
2022-12-14T21:21:54.425Z,-2.80
2022-12-14T21:27:23.291Z,-2.80
2022-12-14T21:30:01.867Z,-2.80
2022-12-14T21:32:37.704Z,-2.80
2022-12-14T21:38:04.653Z,-2.80
2022-12-14T21:43:34.538Z,-2.80
2022-12-14T21:46:03.348Z,-2.80
2022-12-14T21:48:34.155Z,-2.80
2022-12-14T21:51:13.680Z,-2.80
2022-12-14T21:53:58.867Z,-2.80
2022-12-14T21:56:56.145Z,-2.80
2022-12-14T21:59:35.011Z,-2.90
2022-12-14T22:02:27.564Z,-2.90
2022-12-14T22:05:01.744Z,-2.90
2022-12-14T22:07:42.910Z,-2.90
2022-12-14T22:10:17.775Z,-3.00
2022-12-14T22:12:58.876Z,-2.90
2022-12-14T22:15:26.517Z,-2.90
2022-12-14T22:17:57.788Z,-2.90
2022-12-14T22:20:26.675Z,-3.00
2022-12-14T22:22:55.077Z,-3.00
2022-12-14T22:28:06.146Z,-3.00
2022-12-14T22:30:43.202Z,-3.10
2022-12-14T22:33:13.617Z,-3.00
2022-12-14T22:35:43.313Z,-3.00
2022-12-14T22:38:12.663Z,-3.10
2022-12-14T22:40:45.530Z,-3.10
2022-12-14T22:43:17.772Z,-3.10
2022-12-14T22:48:36.517Z,-3.00
2022-12-14T22:51:29.408Z,-3.00
2022-12-14T22:54:01.321Z,-3.10
2022-12-14T22:57:08.363Z,-3.10
2022-12-14T23:00:07.212Z,-3.10
2022-12-14T23:02:47.590Z,-3.10
2022-12-14T23:05:18.271Z,-3.10
2022-12-14T23:07:51.506Z,-3.10
2022-12-14T23:11:04.929Z,-3.20
2022-12-14T23:14:01.444Z,-3.20
2022-12-14T23:16:55.259Z,-3.20
2022-12-14T23:19:47.286Z,-3.20
2022-12-14T23:22:49.816Z,-3.30
2022-12-14T23:25:35.976Z,-3.40
2022-12-14T23:28:39.717Z,-3.40
2022-12-14T23:31:37.120Z,-3.40
2022-12-14T23:34:23.547Z,-3.50
2022-12-14T23:37:17.982Z,-3.50
2022-12-14T23:40:07.979Z,-3.50
2022-12-14T23:42:55.711Z,-3.50
2022-12-14T23:45:42.799Z,-3.50
2022-12-14T23:48:32.450Z,-3.60
2022-12-14T23:51:22.979Z,-3.60
2022-12-14T23:54:12.477Z,-3.60
2022-12-14T23:56:58.867Z,-3.50
2022-12-14T23:59:49.660Z,-3.60
